createdAt,value
2022-11-24T00:01:18.973Z,100124.72
2022-11-24T00:03:52.997Z,100122.78
2022-11-24T00:06:22.228Z,100125.03
2022-11-24T00:08:50.104Z,100131.06
2022-11-24T00:11:20.436Z,100128.81
2022-11-24T00:13:48.631Z,100132.66
2022-11-24T00:16:19.361Z,100130.44
2022-11-24T00:18:49.757Z,100132.50
2022-11-24T00:21:20.364Z,100126.94
2022-11-24T00:23:50.494Z,100129.31
2022-11-24T00:26:20.277Z,100136.97
2022-11-24T00:28:49.889Z,100134.56
2022-11-24T00:31:20.550Z,100125.97
2022-11-24T00:33:50.397Z,100133.28
2022-11-24T00:36:19.737Z,100135.22
2022-11-24T00:38:49.450Z,100130.44
2022-11-24T00:41:17.702Z,100145.84
2022-11-24T00:43:45.479Z,100132.66
2022-11-24T00:46:13.442Z,100134.41
2022-11-24T00:48:41.346Z,100146.81
2022-11-24T00:51:11.208Z,100153.34
2022-11-24T00:53:39.050Z,100153.34
2022-11-24T00:56:09.532Z,100152.38
2022-11-24T00:58:37.921Z,100148.56
2022-11-24T01:01:09.463Z,100149.34
2022-11-24T01:03:37.650Z,100158.91
2022-11-24T01:06:06.888Z,100161.47
2022-11-24T01:08:35.256Z,100171.97
2022-11-24T01:11:15.704Z,100169.06
2022-11-24T01:13:45.314Z,100176.59
2022-11-24T01:16:18.133Z,100178.81
2022-11-24T01:18:46.699Z,100174.50
2022-11-24T01:21:15.273Z,100166.69
2022-11-24T01:23:44.683Z,100177.03
2022-11-24T01:26:16.635Z,100180.88
2022-11-24T01:28:47.530Z,100180.06
2022-11-24T01:31:17.703Z,100183.91
2022-11-24T01:33:45.553Z,100171.44
2022-11-24T01:36:13.680Z,100176.88
2022-11-24T01:38:41.631Z,100174.16
2022-11-24T01:41:14.540Z,100178.47
2022-11-24T01:43:43.545Z,100176.56
2022-11-24T01:46:19.243Z,100180.53
2022-11-24T01:48:52.074Z,100185.03
2022-11-24T01:51:24.673Z,100187.41
2022-11-24T01:53:57.970Z,100188.34
2022-11-24T01:56:28.726Z,100185.34
2022-11-24T01:59:00.330Z,100192.34
2022-11-24T02:01:29.406Z,100197.75
2022-11-24T02:03:58.450Z,100196.97
2022-11-24T02:06:29.126Z,100196.19
2022-11-24T02:09:01.149Z,100200.78
2022-11-24T02:11:35.930Z,100199.81
2022-11-24T02:14:06.266Z,100198.22
2022-11-24T02:16:36.521Z,100195.84
2022-11-24T02:19:10.413Z,100202.03
2022-11-24T02:21:38.422Z,100200.47
2022-11-24T02:24:12.797Z,100204.56
2022-11-24T02:26:44.401Z,100211.56
2022-11-24T02:29:13.382Z,100210.44
2022-11-24T02:31:46.457Z,100212.69
2022-11-24T02:34:14.367Z,100220.00
2022-11-24T02:36:42.436Z,100212.38
2022-11-24T02:39:12.821Z,100212.06
2022-11-24T02:41:44.903Z,100212.88
2022-11-24T02:44:16.646Z,100216.06
2022-11-24T02:46:44.885Z,100213.66
2022-11-24T02:49:12.786Z,100220.66
2022-11-24T02:51:41.025Z,100222.25
2022-11-24T02:54:08.867Z,100211.44
2022-11-24T02:56:36.735Z,100218.75
2022-11-24T02:59:06.030Z,100219.22
2022-11-24T03:01:33.857Z,100216.19
2022-11-24T03:04:01.919Z,100221.63
2022-11-24T03:06:29.739Z,100226.72
2022-11-24T03:08:57.832Z,100222.44
2022-11-24T03:11:25.867Z,100231.03
2022-11-24T03:13:54.042Z,100221.00
2022-11-24T03:16:23.573Z,100223.38
2022-11-24T03:18:52.036Z,100221.94
2022-11-24T03:21:20.347Z,100227.53
2022-11-24T03:23:48.477Z,100228.00
2022-11-24T03:26:18.670Z,100228.50
2022-11-24T03:28:46.755Z,100233.94
2022-11-24T03:31:14.851Z,100233.94
2022-11-24T03:33:44.158Z,100235.50
2022-11-24T03:36:11.979Z,100239.34
2022-11-24T03:38:39.916Z,100235.34
2022-11-24T03:41:07.820Z,100247.59
2022-11-24T03:43:40.399Z,100249.84
2022-11-24T03:46:11.684Z,100250.63
2022-11-24T03:48:39.824Z,100252.66
2022-11-24T03:51:09.102Z,100253.16
2022-11-24T03:53:37.214Z,100259.03
2022-11-24T03:56:05.358Z,100257.94
2022-11-24T03:58:33.267Z,100261.94
2022-11-24T04:01:01.044Z,100270.50
2022-11-24T04:03:28.884Z,100266.41
2022-11-24T04:05:56.857Z,100270.38
2022-11-24T04:08:26.061Z,100283.78
2022-11-24T04:10:55.283Z,100270.25
2022-11-24T04:13:23.649Z,100275.47
2022-11-24T04:15:51.930Z,100267.06
2022-11-24T04:18:20.879Z,100263.25
2022-11-24T04:20:51.489Z,100262.13
2022-11-24T04:23:20.268Z,100268.00
2022-11-24T04:25:49.408Z,100265.31
2022-11-24T04:28:17.422Z,100267.22
2022-11-24T04:30:45.380Z,100279.81
2022-11-24T04:33:14.061Z,100277.56
2022-11-24T04:35:42.109Z,100276.47
2022-11-24T04:38:09.964Z,100276.47
2022-11-24T04:40:38.752Z,100276.94
2022-11-24T04:43:08.115Z,100274.72
2022-11-24T04:45:36.125Z,100279.50
2022-11-24T04:48:04.137Z,100281.09
2022-11-24T04:50:31.927Z,100283.78
2022-11-24T04:52:59.771Z,100289.06
2022-11-24T04:55:27.710Z,100285.41
2022-11-24T04:57:55.523Z,100298.63
2022-11-24T05:00:24.824Z,100300.38
2022-11-24T05:02:52.662Z,100301.19
2022-11-24T05:05:20.676Z,100308.19
2022-11-24T05:07:48.795Z,100302.00
2022-11-24T05:10:34.583Z,100306.63
2022-11-24T05:13:04.352Z,100308.19
2022-11-24T05:15:34.202Z,100307.41
2022-11-24T05:18:06.003Z,100308.19
2022-11-24T05:20:33.870Z,100319.84
2022-11-24T05:23:05.012Z,100319.50
2022-11-24T05:25:33.551Z,100323.00
2022-11-24T05:28:02.495Z,100318.38
2022-11-24T05:30:30.594Z,100319.19
2022-11-24T05:33:00.209Z,100323.00
2022-11-24T05:35:28.368Z,100323.81
2022-11-24T05:37:56.405Z,100325.41
2022-11-24T05:40:24.207Z,100346.44
2022-11-24T05:42:52.100Z,100334.19
2022-11-24T05:45:21.590Z,100352.81
2022-11-24T05:47:50.896Z,100354.41
2022-11-24T05:50:22.035Z,100347.41
2022-11-24T05:52:50.538Z,100352.81
2022-11-24T05:55:20.505Z,100356.63
2022-11-24T05:57:48.317Z,100359.69
2022-11-24T06:00:18.243Z,100361.59
2022-11-24T06:02:46.218Z,100358.09
2022-11-24T06:05:14.294Z,100362.72
2022-11-24T06:07:43.483Z,100367.16
2022-11-24T06:10:11.667Z,100369.25
2022-11-24T06:12:39.868Z,100375.75
2022-11-24T06:15:08.547Z,100374.94
2022-11-24T06:17:36.568Z,100370.97
2022-11-24T06:20:04.949Z,100376.41
2022-11-24T06:22:33.500Z,100386.13
2022-11-24T06:25:02.930Z,100383.41
2022-11-24T06:27:30.693Z,100389.78
2022-11-24T06:29:58.611Z,100383.59
2022-11-24T06:32:26.429Z,100384.38
2022-11-24T06:34:54.409Z,100393.63
2022-11-24T06:37:22.214Z,100396.00
2022-11-24T06:39:50.166Z,100407.16
2022-11-24T06:42:19.708Z,100411.47
2022-11-24T06:44:48.033Z,100413.66
2022-11-24T06:47:16.208Z,100417.50
2022-11-24T06:49:44.212Z,100430.56
2022-11-24T06:52:12.109Z,100419.72
2022-11-24T06:54:41.968Z,100418.75
2022-11-24T06:57:10.080Z,100436.63
2022-11-24T06:59:39.330Z,100435.00
2022-11-24T07:02:07.626Z,100437.25
2022-11-24T07:04:35.995Z,100438.84
2022-11-24T07:07:04.053Z,100444.25
2022-11-24T07:09:32.247Z,100440.44
2022-11-24T07:12:00.205Z,100459.25
2022-11-24T07:14:27.982Z,100469.47
2022-11-24T07:16:57.349Z,100474.25
2022-11-24T07:19:25.463Z,100475.84
2022-11-24T07:21:53.895Z,100475.84
2022-11-24T07:24:21.746Z,100484.28
2022-11-24T07:26:49.553Z,100477.28
2022-11-24T07:29:17.508Z,100488.72
2022-11-24T07:31:46.039Z,100491.16
2022-11-24T07:34:15.775Z,100499.09
2022-11-24T07:36:45.163Z,100499.75
2022-11-24T07:39:13.108Z,100521.09
2022-11-24T07:41:40.963Z,100513.78
2022-11-24T07:44:09.000Z,100524.94
2022-11-24T07:46:36.835Z,100539.28
2022-11-24T07:49:04.834Z,100539.28
2022-11-24T07:51:34.360Z,100540.06
2022-11-24T07:54:02.439Z,100553.28
2022-11-24T07:56:30.282Z,100558.91
2022-11-24T07:58:58.390Z,100557.00
2022-11-24T08:01:26.265Z,100561.16
2022-11-24T08:03:54.261Z,100560.38
2022-11-24T08:06:26.114Z,100568.19
2022-11-24T08:08:58.873Z,100576.91
2022-11-24T08:11:27.309Z,100577.44
2022-11-24T08:13:55.253Z,100582.53
2022-11-24T08:16:23.203Z,100590.34
2022-11-24T08:18:52.679Z,100591.94
2022-11-24T08:21:23.218Z,100597.34
2022-11-24T08:23:54.926Z,100597.34
2022-11-24T08:26:25.435Z,100609.00
2022-11-24T08:28:56.694Z,100612.00
2022-11-24T08:31:27.412Z,100620.63
2022-11-24T08:33:56.449Z,100626.84
2022-11-24T08:36:24.326Z,100628.28
2022-11-24T08:38:55.991Z,100629.88
2022-11-24T08:41:26.014Z,100631.34
2022-11-24T08:43:54.471Z,100634.53
2022-11-24T08:46:23.512Z,100639.66
2022-11-24T08:48:53.425Z,100636.63
2022-11-24T08:51:24.449Z,100639.03
2022-11-24T08:53:57.059Z,100646.84
2022-11-24T08:56:27.143Z,100650.34
2022-11-24T08:58:55.799Z,100654.50
2022-11-24T09:01:24.427Z,100666.44
2022-11-24T09:03:53.254Z,100671.88
2022-11-24T09:06:23.883Z,100676.16
2022-11-24T09:08:52.033Z,100670.13
2022-11-24T09:11:20.427Z,100672.81
2022-11-24T09:13:49.630Z,100680.16
2022-11-24T09:16:19.023Z,100674.94
2022-11-24T09:18:47.908Z,100681.94
2022-11-24T09:21:17.084Z,100678.13
2022-11-24T09:23:46.991Z,100682.13
2022-11-24T09:26:17.587Z,100686.94
2022-11-24T09:28:45.802Z,100698.44
2022-11-24T09:31:18.021Z,100695.09
2022-11-24T09:33:46.763Z,100698.28
2022-11-24T09:36:15.292Z,100705.34
2022-11-24T09:38:43.224Z,100711.38
2022-11-24T09:41:32.323Z,100709.94
2022-11-24T09:44:04.594Z,100725.31
2022-11-24T09:46:42.051Z,100727.41
2022-11-24T09:49:15.263Z,100724.06
2022-11-24T09:51:46.857Z,100732.06
2022-11-24T09:54:19.427Z,100732.34
2022-11-24T09:56:48.713Z,100730.81
2022-11-24T09:59:18.844Z,100731.78
2022-11-24T10:01:49.608Z,100739.28
2022-11-24T10:04:21.038Z,100738.69
2022-11-24T10:06:56.036Z,100738.38
2022-11-24T10:09:39.961Z,100737.13
2022-11-24T10:12:21.893Z,100746.91
2022-11-24T10:15:14.828Z,100745.81
2022-11-24T10:17:55.255Z,100757.00
2022-11-24T10:20:29.731Z,100755.25
2022-11-24T10:23:10.180Z,100758.78
2022-11-24T10:25:47.411Z,100758.28
2022-11-24T10:28:17.115Z,100765.50
2022-11-24T10:30:45.620Z,100769.81
2022-11-24T10:33:19.391Z,100771.59
2022-11-24T10:35:52.543Z,100774.31
2022-11-24T10:38:31.745Z,100768.72
2022-11-24T10:41:04.241Z,100782.63
2022-11-24T10:43:32.520Z,100777.69
2022-11-24T10:46:10.947Z,100778.34
2022-11-24T10:48:45.049Z,100784.56
2022-11-24T10:51:43.883Z,100784.38
2022-11-24T10:54:17.928Z,100793.19
2022-11-24T10:56:47.964Z,100797.34
2022-11-24T10:59:33.361Z,100802.16
2022-11-24T11:02:02.223Z,100795.75
2022-11-24T11:04:33.267Z,100802.66
2022-11-24T11:07:17.336Z,100812.56
2022-11-24T11:09:45.471Z,100804.44
2022-11-24T11:12:42.819Z,100800.44
2022-11-24T11:15:27.150Z,100810.47
2022-11-24T11:17:59.444Z,100807.94
2022-11-24T11:20:32.470Z,100814.50
2022-11-24T11:23:03.023Z,100803.47
2022-11-24T11:25:34.140Z,100814.50
2022-11-24T11:28:35.184Z,100814.34
2022-11-24T11:31:22.184Z,100815.28
2022-11-24T11:34:09.408Z,100816.91
2022-11-24T11:36:45.041Z,100826.66
2022-11-24T11:39:23.338Z,100831.00
2022-11-24T11:41:54.175Z,100825.53
2022-11-24T11:44:32.989Z,100821.53
2022-11-24T11:47:04.323Z,100828.25
2022-11-24T11:49:32.276Z,100830.31
2022-11-24T11:52:22.227Z,100831.44
2022-11-24T11:55:17.395Z,100827.91
2022-11-24T11:57:52.007Z,100831.09
2022-11-24T12:00:22.397Z,100823.75
2022-11-24T12:03:15.907Z,100831.91
2022-11-24T12:05:53.563Z,100835.28
2022-11-24T12:09:03.256Z,100839.59
2022-11-24T12:11:36.021Z,100834.00
2022-11-24T12:14:26.492Z,100832.22
2022-11-24T12:17:03.545Z,100828.06
2022-11-24T12:19:52.371Z,100829.19
2022-11-24T12:22:30.567Z,100831.44
2022-11-24T12:25:15.923Z,100827.41
2022-11-24T12:27:52.152Z,100814.78
2022-11-24T12:30:23.524Z,100813.81
2022-11-24T12:33:08.504Z,100830.63
2022-11-24T12:35:39.838Z,100822.94
2022-11-24T12:38:22.606Z,100822.78
2022-11-24T12:41:33.564Z,100811.75
2022-11-24T12:43:58.896Z,100821.50
2022-11-24T12:46:38.792Z,100818.78
2022-11-24T12:49:21.038Z,100823.25
2022-11-24T12:51:55.990Z,100827.41
2022-11-24T12:54:26.026Z,100831.25
2022-11-24T12:57:05.985Z,100819.44
2022-11-24T12:59:40.266Z,100814.78
2022-11-24T13:02:24.088Z,100817.03
2022-11-24T13:05:00.822Z,100819.28
2022-11-24T13:07:41.180Z,100826.63
2022-11-24T13:10:55.408Z,100826.78
2022-11-24T13:13:25.194Z,100832.53
2022-11-24T13:19:08.601Z,100837.03
2022-11-24T13:21:52.072Z,100825.19
2022-11-24T13:24:25.471Z,100830.31
2022-11-24T13:26:55.784Z,100833.34
2022-11-24T13:29:39.004Z,100836.72
2022-11-24T13:32:53.032Z,100852.56
2022-11-24T13:35:20.982Z,100836.72
2022-11-24T13:37:51.854Z,100849.22
2022-11-24T13:40:45.877Z,100860.72
2022-11-24T13:43:21.923Z,100853.19
2022-11-24T13:45:53.797Z,100854.78
2022-11-24T13:48:59.527Z,100855.13
2022-11-24T13:51:27.917Z,100856.56
2022-11-24T13:54:00.932Z,100845.69
2022-11-24T13:56:32.069Z,100865.19
2022-11-24T13:59:02.688Z,100846.47
2022-11-24T14:01:33.970Z,100852.72
2022-11-24T14:04:32.918Z,100858.81
2022-11-24T14:07:08.274Z,100858.47
2022-11-24T14:09:42.868Z,100851.13
2022-11-24T14:12:15.696Z,100852.41
2022-11-24T14:14:45.551Z,100846.34
2022-11-24T14:17:23.029Z,100857.22
2022-11-24T14:19:53.553Z,100852.41
2022-11-24T14:22:24.437Z,100846.50
2022-11-24T14:24:57.218Z,100854.19
2022-11-24T14:27:30.904Z,100855.28
2022-11-24T14:30:01.684Z,100858.50
2022-11-24T14:32:31.114Z,100856.91
2022-11-24T14:34:59.341Z,100848.75
2022-11-24T14:37:27.384Z,100861.69
2022-11-24T14:39:55.234Z,100857.84
2022-11-24T14:42:25.432Z,100858.31
2022-11-24T14:44:56.723Z,100853.53
2022-11-24T14:47:31.244Z,100849.50
2022-11-24T14:50:11.031Z,100851.63
2022-11-24T14:52:45.716Z,100845.38
2022-11-24T14:55:26.191Z,100844.41
2022-11-24T14:57:55.655Z,100839.44
2022-11-24T15:00:29.298Z,100842.03
2022-11-24T15:03:13.535Z,100837.06
2022-11-24T15:05:58.743Z,100846.94
2022-11-24T15:08:29.146Z,100841.50
2022-11-24T15:11:00.425Z,100844.38
2022-11-24T15:13:30.218Z,100852.84
2022-11-24T15:16:03.284Z,100861.31
2022-11-24T15:18:38.800Z,100859.72
2022-11-24T15:21:08.909Z,100858.13
2022-11-24T15:23:41.279Z,100862.59
2022-11-24T15:26:31.510Z,100871.53
2022-11-24T15:29:02.487Z,100869.13
2022-11-24T15:31:30.494Z,100867.34
2022-11-24T15:33:58.409Z,100862.38
2022-11-24T15:36:27.651Z,100875.34
2022-11-24T15:38:55.668Z,100871.97
2022-11-24T15:41:29.242Z,100868.59
2022-11-24T15:43:59.328Z,100868.72
2022-11-24T15:46:27.968Z,100867.56
2022-11-24T15:48:56.261Z,100857.50
2022-11-24T15:51:27.825Z,100866.09
2022-11-24T15:54:01.062Z,100876.00
2022-11-24T15:56:34.135Z,100874.50
2022-11-24T15:59:02.067Z,100885.97
2022-11-24T16:01:32.710Z,100893.66
2022-11-24T16:04:03.401Z,100891.84
2022-11-24T16:06:33.059Z,100894.41
2022-11-24T16:09:01.478Z,100894.53
2022-11-24T16:11:29.352Z,100894.16
2022-11-24T16:13:57.293Z,100897.81
2022-11-24T16:16:25.697Z,100902.56
2022-11-24T16:18:54.102Z,100898.69
2022-11-24T16:21:22.126Z,100908.06
2022-11-24T16:23:52.007Z,100907.38
2022-11-24T16:26:19.866Z,100907.81
2022-11-24T16:28:47.881Z,100900.59
2022-11-24T16:31:16.611Z,100905.00
2022-11-24T16:33:46.333Z,100902.41
2022-11-24T16:36:14.901Z,100910.34
2022-11-24T16:38:42.736Z,100904.25
2022-11-24T16:41:12.480Z,100902.44
2022-11-24T16:43:40.616Z,100904.66
2022-11-24T16:46:19.096Z,100906.09
2022-11-24T16:48:48.952Z,100913.69
2022-11-24T16:51:19.411Z,100911.13
2022-11-24T16:53:47.729Z,100910.13
2022-11-24T16:56:17.640Z,100908.03
2022-11-24T16:58:45.679Z,100906.53
2022-11-24T17:01:14.723Z,100914.75
2022-11-24T17:03:42.747Z,100905.13
2022-11-24T17:06:12.411Z,100904.16
2022-11-24T17:08:41.541Z,100902.34
2022-11-24T17:11:10.305Z,100899.94
2022-11-24T17:13:42.199Z,100898.91
2022-11-24T17:16:12.167Z,100901.13
2022-11-24T17:18:41.117Z,100905.53
2022-11-24T17:21:12.512Z,100895.31
2022-11-24T17:23:40.318Z,100911.19
2022-11-24T17:26:11.687Z,100910.78
2022-11-24T17:28:41.275Z,100909.19
2022-11-24T17:31:09.847Z,100906.97
2022-11-24T17:33:37.766Z,100913.41
2022-11-24T17:36:08.135Z,100911.19
2022-11-24T17:38:37.374Z,100917.09
2022-11-24T17:41:05.344Z,100915.97
2022-11-24T17:43:33.481Z,100904.34
2022-11-24T17:46:04.237Z,100913.00
2022-11-24T17:48:33.102Z,100908.38
2022-11-24T17:51:06.331Z,100918.41
2022-11-24T17:53:36.274Z,100923.03
2022-11-24T17:56:05.769Z,100931.66
2022-11-24T17:58:41.353Z,100924.63
2022-11-24T18:01:13.362Z,100924.63
2022-11-24T18:03:41.683Z,100926.81
2022-11-24T18:06:11.461Z,100923.03
2022-11-24T18:08:41.253Z,100937.63
2022-11-24T18:11:11.149Z,100936.03
2022-11-24T18:13:56.466Z,100933.03
2022-11-24T18:16:30.018Z,100946.28
2022-11-24T18:19:14.359Z,100945.19
2022-11-24T18:21:43.848Z,100951.72
2022-11-24T18:24:13.293Z,100940.88
2022-11-24T18:26:42.778Z,100950.09
2022-11-24T18:29:11.420Z,100951.19
2022-11-24T18:31:41.178Z,100946.38
2022-11-24T18:34:09.595Z,100951.31
2022-11-24T18:36:37.961Z,100941.84
2022-11-24T18:39:07.454Z,100949.47
2022-11-24T18:41:35.593Z,100949.78
2022-11-24T18:44:07.683Z,100951.47
2022-11-24T18:46:35.935Z,100951.78
2022-11-24T18:49:05.821Z,100953.69
2022-11-24T18:51:33.779Z,100947.78
2022-11-24T18:54:03.028Z,100952.66
2022-11-24T18:56:31.513Z,100951.88
2022-11-24T18:58:59.402Z,100948.34
2022-11-24T19:01:29.467Z,100949.69
2022-11-24T19:03:59.993Z,100941.25
2022-11-24T19:06:32.497Z,100942.84
2022-11-24T19:09:02.403Z,100941.25
2022-11-24T19:11:32.678Z,100938.06
2022-11-24T19:14:01.895Z,100940.25
2022-11-24T19:16:30.335Z,100940.84
2022-11-24T19:19:00.204Z,100928.41
2022-11-24T19:21:31.577Z,100934.41
2022-11-24T19:24:04.947Z,100932.00
2022-11-24T19:26:35.258Z,100924.19
2022-11-24T19:29:03.692Z,100925.31
2022-11-24T19:31:31.946Z,100928.28
2022-11-24T19:34:00.176Z,100928.59
2022-11-24T19:36:29.827Z,100933.19
2022-11-24T19:38:59.618Z,100928.09
2022-11-24T19:41:29.351Z,100923.78
2022-11-24T19:43:58.869Z,100938.41
2022-11-24T19:46:29.857Z,100930.78
2022-11-24T19:49:00.569Z,100937.81
2022-11-24T19:51:31.987Z,100927.00
2022-11-24T19:54:00.719Z,100937.81
2022-11-24T19:56:30.130Z,100936.72
2022-11-24T19:58:58.411Z,100927.28
2022-11-24T20:01:28.261Z,100934.59
2022-11-24T20:03:58.852Z,100936.00
2022-11-24T20:06:28.260Z,100931.97
2022-11-24T20:08:58.521Z,100932.59
2022-11-24T20:11:26.500Z,100929.38
2022-11-24T20:13:54.618Z,100931.06
2022-11-24T20:16:26.613Z,100926.25
2022-11-24T20:18:56.732Z,100933.56
2022-11-24T20:21:27.677Z,100925.75
2022-11-24T20:23:59.266Z,100927.94
2022-11-24T20:26:29.274Z,100925.81
2022-11-24T20:28:59.294Z,100923.41
2022-11-24T20:31:29.379Z,100931.53
2022-11-24T20:33:57.544Z,100932.03
2022-11-24T20:36:26.930Z,100931.75
2022-11-24T20:38:55.152Z,100925.25
2022-11-24T20:41:27.051Z,100915.53
2022-11-24T20:43:56.596Z,100928.25
2022-11-24T20:46:26.177Z,100923.41
2022-11-24T20:48:55.012Z,100917.81
2022-11-24T20:51:25.222Z,100924.31
2022-11-24T20:53:55.371Z,100926.50
2022-11-24T20:56:26.334Z,100923.28
2022-11-24T20:58:55.333Z,100926.00
2022-11-24T21:01:25.336Z,100913.88
2022-11-24T21:03:55.620Z,100921.69
2022-11-24T21:06:24.377Z,100920.09
2022-11-24T21:08:52.657Z,100928.22
2022-11-24T21:11:21.721Z,100926.59
2022-11-24T21:13:52.018Z,100925.78
2022-11-24T21:16:22.464Z,100932.00
2022-11-24T21:18:52.402Z,100934.13
2022-11-24T21:21:21.412Z,100925.69
2022-11-24T21:23:50.513Z,100923.72
2022-11-24T21:26:19.464Z,100919.91
2022-11-24T21:28:48.762Z,100926.91
2022-11-24T21:31:20.698Z,100929.13
2022-11-24T21:33:50.381Z,100923.72
2022-11-24T21:36:21.107Z,100924.81
2022-11-24T21:38:51.807Z,100932.13
2022-11-24T21:41:20.708Z,100927.03
2022-11-24T21:43:49.012Z,100920.00
2022-11-24T21:46:18.778Z,100925.13
2022-11-24T21:48:46.648Z,100923.50
2022-11-24T21:51:16.593Z,100921.63
2022-11-24T21:53:45.876Z,100921.63
2022-11-24T21:56:15.658Z,100917.81
2022-11-24T21:58:47.604Z,100911.28
2022-11-24T22:01:16.679Z,100908.00
2022-11-24T22:03:46.923Z,100904.19
2022-11-24T22:06:15.305Z,100911.09
2022-11-24T22:08:43.266Z,100905.63
2022-11-24T22:11:15.019Z,100893.09
2022-11-24T22:13:44.234Z,100899.31
2022-11-24T22:16:13.541Z,100897.91
2022-11-24T22:18:43.164Z,100901.72
2022-11-24T22:21:15.003Z,100900.41
2022-11-24T22:23:43.725Z,100905.53
2022-11-24T22:26:14.110Z,100891.47
2022-11-24T22:28:42.739Z,100896.63
2022-11-24T22:31:12.995Z,100888.28
2022-11-24T22:33:41.328Z,100897.91
2022-11-24T22:36:09.600Z,100902.53
2022-11-24T22:38:39.274Z,100898.09
2022-11-24T22:41:09.213Z,100888.09
2022-11-24T22:43:38.513Z,100888.91
2022-11-24T22:46:07.026Z,100892.41
2022-11-24T22:48:35.263Z,100885.91
2022-11-24T22:51:05.029Z,100883.69
2022-11-24T22:53:33.090Z,100886.31
2022-11-24T22:56:07.743Z,100877.25
2022-11-24T22:58:35.558Z,100873.19
2022-11-24T23:01:07.045Z,100872.88
2022-11-24T23:03:35.643Z,100861.25
2022-11-24T23:06:05.039Z,100860.13
2022-11-24T23:08:34.498Z,100866.34
2022-11-24T23:11:03.346Z,100868.25
2022-11-24T23:13:32.920Z,100861.25
2022-11-24T23:16:02.908Z,100853.31
2022-11-24T23:18:31.277Z,100850.59
2022-11-24T23:21:05.915Z,100852.81
2022-11-24T23:23:33.908Z,100851.44
2022-11-24T23:26:02.483Z,100855.72
2022-11-24T23:28:30.336Z,100851.44
2022-11-24T23:31:05.058Z,100842.47
2022-11-24T23:33:35.665Z,100840.59
2022-11-24T23:36:04.732Z,100842.19
2022-11-24T23:38:33.552Z,100850.00
2022-11-24T23:41:04.478Z,100837.75
2022-11-24T23:43:32.655Z,100838.78
2022-11-24T23:46:04.203Z,100830.34
2022-11-24T23:48:32.689Z,100827.34
2022-11-24T23:51:05.452Z,100830.03
2022-11-24T23:53:33.890Z,100831.16
2022-11-24T23:56:02.090Z,100818.72
2022-11-24T23:58:30.493Z,100818.72
